Kinuso, Canada
Current Conditions -  °F | °C
As of 9:09 PM on Thursday 27 Nov 2014 (Local Time) from CYZH Reporting Station
Light Snow Light Snow  
Wind Chill: -2°   Ceiling: 3000
Heat Index: -2°   Visibility: 1.2mi
Dew Point: -8°   Wind: 3mph
Humidity: 78%   Direction: 80°E
Pressure: 30.08"   Gusts: NA
Location:  55.33°N, 115.43°W
Report Text: CYZH 280409Z AUTO 08003KT 030V120 1 1/4SM -SN OVC030 M19/M22 A3008 RMK SLP242
Loading
Personal Weather Stations






























Interactive Weather Map New forecast layout! Learn more

10-Day Weather Forecast

Advertisements
Track Severe Weather on mobile